Aeroporto :
LOGIN :

Iscrizione | Disclaimer

   EN    FR    IT 

 










Sommario :    VFR   VFR Marginale   IFR   IFR Intensivo   IFR Molto Intensivo
Visibilità : 
Base nubi : 
>= 8 km
>= 3000ft
5 / 8 km
1000 / 3000 ft
1500m / 5 km
500 / 1000 ft
800 / 1500m
200 / 500 ft
< 800m
< 200 ft
Simboli :   Temporali  Nebbia  Neve Forte  Precipitazioni Forti  Vento > 20 kt
SIGMETs :   Varie  Temporali  Ghiacco  Turbolenza  Onda orograficha  Ceneri Vulcaniche






- Altitudine del aeroporto : 287 ft


LFRL - Lanveoc Poulmic

ULTIMO METAR :
  • 060930Z AUTO 19006KT 130V240 9999 BKN014 BKN019 22/17 Q1017 BECMG NSC

METARs OBSOLETI :
  • 060900Z AUTO 18008KT 9999 BKN011 BKN017 20/17 Q1017 BECMG NSC
  • 060830Z AUTO 18008KT 140V210 9999 BKN009 BKN015 20/17 Q1016 BECMG NSC
  • 060800Z AUTO 17008KT 140V200 9999 OVC006 19/18 Q1016 BECMG NSC
  • 060730Z AUTO 19007KT 160V220 9999 BKN005 OVC009 19/18 Q1016 BECMG NSC
  • 060700Z AUTO 18007KT 9999 OVC005 19/18 Q1016 BECMG NSC
  • 060630Z AUTO 17007KT 9999 BKN004 OVC009 18/18 Q1016 BECMG NSC

TAF TAF LFRL
Valido dal 06 a 06 ore il 07 a 06 ore UTC


060500Z 0606/0706 18005KT 9999 BKN003 OVC009
BECMG 0608/0610 CAVOK
BECMG 0615/0618 VRB03KT



MetMap, La meteo Aeronautica in un colpo d'occhio ! - Copyright ORBIFLY Dicembre 2007 - Disclaimer

ORBIFLY MET'MAP TEAM :

Programmazione e sviluppo : Alexandra Zaïnal
Concezione : Baudouin d'Aumeries
Aiuto per la programmazione : Marc-Olivier Méhu
Supporto tecnico e logistico : Manuel Goepfert
Aiuto per la traduzione : Arnaldo La Scala

Contatto : metmap@orbifly.com




FONTI E CREDITI :

   NOAA